sensor_id;sensor_type;location;lat;lon;timestamp;P1;durP1;ratioP1;P2;durP2;ratioP2
57337;SDS011;43173;50.980;18.204;2023-03-01T00:01:01;98.30;;;34.50;;
57337;SDS011;43173;50.980;18.204;2023-03-01T00:03:35;82.40;;;32.30;;
57337;SDS011;43173;50.980;18.204;2023-03-01T00:06:02;87.90;;;31.40;;
57337;SDS011;43173;50.980;18.204;2023-03-01T00:08:28;75.10;;;31.20;;
57337;SDS011;43173;50.980;18.204;2023-03-01T00:11:02;90.70;;;31.30;;
57337;SDS011;43173;50.980;18.204;2023-03-01T00:13:29;82.90;;;30.50;;
57337;SDS011;43173;50.980;18.204;2023-03-01T00:15:55;85.20;;;32.10;;
57337;SDS011;43173;50.980;18.204;2023-03-01T00:18:21;88.80;;;33.30;;
57337;SDS011;43173;50.980;18.204;2023-03-01T00:20:52;122.10;;;45.40;;
57337;SDS011;43173;50.980;18.204;2023-03-01T00:23:19;103.70;;;41.00;;
57337;SDS011;43173;50.980;18.204;2023-03-01T00:25:45;100.60;;;39.40;;
57337;SDS011;43173;50.980;18.204;2023-03-01T00:28:10;109.60;;;41.30;;
57337;SDS011;43173;50.980;18.204;2023-03-01T00:30:36;131.50;;;52.00;;
57337;SDS011;43173;50.980;18.204;2023-03-01T00:33:02;150.40;;;56.10;;
57337;SDS011;43173;50.980;18.204;2023-03-01T00:35:28;136.40;;;54.10;;
57337;SDS011;43173;50.980;18.204;2023-03-01T00:37:54;137.00;;;53.90;;
57337;SDS011;43173;50.980;18.204;2023-03-01T00:40:23;140.40;;;56.40;;
57337;SDS011;43173;50.980;18.204;2023-03-01T00:42:49;151.80;;;59.00;;
57337;SDS011;43173;50.980;18.204;2023-03-01T00:45:16;149.40;;;59.90;;
57337;SDS011;43173;50.980;18.204;2023-03-01T00:47:42;161.20;;;58.50;;
57337;SDS011;43173;50.980;18.204;2023-03-01T00:50:08;149.70;;;54.50;;
57337;SDS011;43173;50.980;18.204;2023-03-01T00:52:35;160.70;;;59.20;;
57337;SDS011;43173;50.980;18.204;2023-03-01T00:55:00;154.90;;;56.80;;
57337;SDS011;43173;50.980;18.204;2023-03-01T00:57:26;150.70;;;56.90;;
57337;SDS011;43173;50.980;18.204;2023-03-01T00:59:51;141.80;;;52.20;;
57337;SDS011;43173;50.980;18.204;2023-03-01T01:02:18;119.10;;;45.60;;
57337;SDS011;43173;50.980;18.204;2023-03-01T01:04:44;107.40;;;39.50;;
57337;SDS011;43173;50.980;18.204;2023-03-01T01:07:11;101.90;;;36.90;;
57337;SDS011;43173;50.980;18.204;2023-03-01T01:09:37;98.30;;;37.60;;
57337;SDS011;43173;50.980;18.204;2023-03-01T01:12:03;86.00;;;34.00;;
57337;SDS011;43173;50.980;18.204;2023-03-01T01:14:29;85.50;;;32.10;;
57337;SDS011;43173;50.980;18.204;2023-03-01T01:16:55;77.70;;;31.60;;
57337;SDS011;43173;50.980;18.204;2023-03-01T01:19:21;76.10;;;30.90;;
57337;SDS011;43173;50.980;18.204;2023-03-01T01:21:47;77.50;;;31.30;;
57337;SDS011;43173;50.980;18.204;2023-03-01T01:24:13;79.40;;;29.00;;
57337;SDS011;43173;50.980;18.204;2023-03-01T01:26:40;79.30;;;29.70;;
57337;SDS011;43173;50.980;18.204;2023-03-01T01:29:06;80.90;;;31.50;;
57337;SDS011;43173;50.980;18.204;2023-03-01T01:31:33;79.80;;;31.40;;
57337;SDS011;43173;50.980;18.204;2023-03-01T01:34:00;89.50;;;34.60;;
57337;SDS011;43173;50.980;18.204;2023-03-01T01:36:27;84.00;;;33.00;;
57337;SDS011;43173;50.980;18.204;2023-03-01T01:38:52;91.60;;;34.20;;
57337;SDS011;43173;50.980;18.204;2023-03-01T01:41:19;85.90;;;31.60;;
57337;SDS011;43173;50.980;18.204;2023-03-01T01:43:50;80.20;;;30.50;;
57337;SDS011;43173;50.980;18.204;2023-03-01T01:49:50;85.10;;;33.00;;
57337;SDS011;43173;50.980;18.204;2023-03-01T01:54:50;80.20;;;29.30;;
57337;SDS011;43173;50.980;18.204;2023-03-01T01:57:20;81.90;;;31.50;;
57337;SDS011;43173;50.980;18.204;2023-03-01T02:00:07;81.50;;;31.60;;
57337;SDS011;43173;50.980;18.204;2023-03-01T02:02:36;114.10;;;38.20;;
57337;SDS011;43173;50.980;18.204;2023-03-01T02:05:08;105.00;;;38.40;;
57337;SDS011;43173;50.980;18.204;2023-03-01T02:07:37;101.90;;;39.80;;
57337;SDS011;43173;50.980;18.204;2023-03-01T02:10:05;92.20;;;35.60;;
57337;SDS011;43173;50.980;18.204;2023-03-01T02:12:31;107.50;;;37.80;;
57337;SDS011;43173;50.980;18.204;2023-03-01T02:14:57;104.60;;;39.00;;
57337;SDS011;43173;50.980;18.204;2023-03-01T02:17:23;95.50;;;37.40;;
57337;SDS011;43173;50.980;18.204;2023-03-01T02:19:52;106.60;;;40.00;;
57337;SDS011;43173;50.980;18.204;2023-03-01T02:22:24;118.50;;;45.90;;
57337;SDS011;43173;50.980;18.204;2023-03-01T02:30:06;98.20;;;42.00;;
57337;SDS011;43173;50.980;18.204;2023-03-01T02:32:33;108.30;;;47.50;;
57337;SDS011;43173;50.980;18.204;2023-03-01T02:34:59;119.10;;;48.10;;
57337;SDS011;43173;50.980;18.204;2023-03-01T02:37:25;107.30;;;46.30;;
57337;SDS011;43173;50.980;18.204;2023-03-01T02:39:53;99.60;;;43.20;;
57337;SDS011;43173;50.980;18.204;2023-03-01T02:42:23;98.70;;;40.10;;
57337;SDS011;43173;50.980;18.204;2023-03-01T02:44:56;115.90;;;45.50;;
57337;SDS011;43173;50.980;18.204;2023-03-01T02:47:22;99.80;;;40.10;;
57337;SDS011;43173;50.980;18.204;2023-03-01T02:49:49;97.30;;;41.50;;
57337;SDS011;43173;50.980;18.204;2023-03-01T02:55:01;95.00;;;40.20;;
57337;SDS011;43173;50.980;18.204;2023-03-01T02:57:30;92.30;;;35.90;;
57337;SDS011;43173;50.980;18.204;2023-03-01T02:59:58;107.70;;;39.40;;
57337;SDS011;43173;50.980;18.204;2023-03-01T03:02:26;95.90;;;39.50;;
57337;SDS011;43173;50.980;18.204;2023-03-01T03:05:17;92.20;;;34.10;;
57337;SDS011;43173;50.980;18.204;2023-03-01T03:07:45;100.00;;;37.80;;
57337;SDS011;43173;50.980;18.204;2023-03-01T03:10:14;95.20;;;37.40;;
57337;SDS011;43173;50.980;18.204;2023-03-01T03:15:13;93.30;;;34.60;;
57337;SDS011;43173;50.980;18.204;2023-03-01T03:17:40;90.40;;;35.30;;
57337;SDS011;43173;50.980;18.204;2023-03-01T03:20:06;98.70;;;39.30;;
57337;SDS011;43173;50.980;18.204;2023-03-01T03:22:37;93.60;;;34.00;;
57337;SDS011;43173;50.980;18.204;2023-03-01T03:25:05;89.10;;;35.10;;
57337;SDS011;43173;50.980;18.204;2023-03-01T03:27:36;104.00;;;38.60;;
57337;SDS011;43173;50.980;18.204;2023-03-01T03:30:04;122.00;;;43.40;;
57337;SDS011;43173;50.980;18.204;2023-03-01T03:32:35;88.10;;;36.20;;
57337;SDS011;43173;50.980;18.204;2023-03-01T03:35:02;99.10;;;40.00;;
57337;SDS011;43173;50.980;18.204;2023-03-01T03:37:40;116.20;;;44.60;;
57337;SDS011;43173;50.980;18.204;2023-03-01T03:40:22;123.10;;;45.00;;
57337;SDS011;43173;50.980;18.204;2023-03-01T03:42:48;122.10;;;46.40;;
57337;SDS011;43173;50.980;18.204;2023-03-01T03:45:14;105.10;;;42.00;;
57337;SDS011;43173;50.980;18.204;2023-03-01T03:47:41;106.00;;;41.50;;
57337;SDS011;43173;50.980;18.204;2023-03-01T03:50:08;118.60;;;43.40;;
57337;SDS011;43173;50.980;18.204;2023-03-01T03:52:35;106.90;;;40.50;;
57337;SDS011;43173;50.980;18.204;2023-03-01T03:55:00;109.60;;;40.80;;
57337;SDS011;43173;50.980;18.204;2023-03-01T03:57:26;100.60;;;41.90;;
57337;SDS011;43173;50.980;18.204;2023-03-01T03:59:52;116.00;;;43.10;;
57337;SDS011;43173;50.980;18.204;2023-03-01T04:02:18;115.10;;;44.20;;
57337;SDS011;43173;50.980;18.204;2023-03-01T04:04:50;122.70;;;49.80;;
57337;SDS011;43173;50.980;18.204;2023-03-01T04:07:16;113.40;;;44.70;;
57337;SDS011;43173;50.980;18.204;2023-03-01T04:09:42;112.40;;;47.30;;
57337;SDS011;43173;50.980;18.204;2023-03-01T04:12:09;120.90;;;49.00;;
57337;SDS011;43173;50.980;18.204;2023-03-01T04:14:35;122.60;;;47.10;;
57337;SDS011;43173;50.980;18.204;2023-03-01T04:17:01;107.40;;;44.40;;
57337;SDS011;43173;50.980;18.204;2023-03-01T04:19:31;107.60;;;44.10;;
57337;SDS011;43173;50.980;18.204;2023-03-01T04:22:04;115.90;;;46.90;;
57337;SDS011;43173;50.980;18.204;2023-03-01T04:24:34;125.60;;;46.70;;
57337;SDS011;43173;50.980;18.204;2023-03-01T04:27:01;131.00;;;51.10;;
57337;SDS011;43173;50.980;18.204;2023-03-01T04:29:27;130.80;;;50.50;;
57337;SDS011;43173;50.980;18.204;2023-03-01T04:31:53;118.70;;;47.20;;
57337;SDS011;43173;50.980;18.204;2023-03-01T04:34:19;121.20;;;48.70;;
57337;SDS011;43173;50.980;18.204;2023-03-01T04:36:45;118.80;;;47.40;;
57337;SDS011;43173;50.980;18.204;2023-03-01T04:39:11;120.70;;;48.30;;
57337;SDS011;43173;50.980;18.204;2023-03-01T04:41:37;108.40;;;49.20;;
57337;SDS011;43173;50.980;18.204;2023-03-01T04:44:04;114.20;;;46.40;;
57337;SDS011;43173;50.980;18.204;2023-03-01T04:46:34;110.90;;;44.90;;
57337;SDS011;43173;50.980;18.204;2023-03-01T04:49:00;121.40;;;49.00;;
57337;SDS011;43173;50.980;18.204;2023-03-01T04:51:26;120.20;;;48.70;;
57337;SDS011;43173;50.980;18.204;2023-03-01T04:53:52;104.80;;;41.70;;
57337;SDS011;43173;50.980;18.204;2023-03-01T04:56:17;119.90;;;45.60;;
57337;SDS011;43173;50.980;18.204;2023-03-01T04:58:43;115.60;;;47.10;;
57337;SDS011;43173;50.980;18.204;2023-03-01T05:01:13;115.10;;;46.40;;
57337;SDS011;43173;50.980;18.204;2023-03-01T05:03:41;122.00;;;45.80;;
57337;SDS011;43173;50.980;18.204;2023-03-01T05:06:11;104.10;;;43.30;;
57337;SDS011;43173;50.980;18.204;2023-03-01T05:08:37;117.50;;;45.50;;
57337;SDS011;43173;50.980;18.204;2023-03-01T05:11:04;138.20;;;54.40;;
57337;SDS011;43173;50.980;18.204;2023-03-01T05:13:31;137.80;;;52.10;;
57337;SDS011;43173;50.980;18.204;2023-03-01T05:15:58;131.20;;;51.70;;
57337;SDS011;43173;50.980;18.204;2023-03-01T05:18:25;131.00;;;48.50;;
57337;SDS011;43173;50.980;18.204;2023-03-01T05:20:52;139.80;;;53.70;;
57337;SDS011;43173;50.980;18.204;2023-03-01T05:23:24;139.10;;;56.40;;
57337;SDS011;43173;50.980;18.204;2023-03-01T05:25:50;129.80;;;49.80;;
57337;SDS011;43173;50.980;18.204;2023-03-01T05:28:17;121.70;;;49.20;;
57337;SDS011;43173;50.980;18.204;2023-03-01T05:30:44;116.10;;;45.90;;
57337;SDS011;43173;50.980;18.204;2023-03-01T05:33:11;106.80;;;44.70;;
57337;SDS011;43173;50.980;18.204;2023-03-01T05:35:41;120.80;;;45.10;;
57337;SDS011;43173;50.980;18.204;2023-03-01T05:38:08;110.50;;;44.20;;
57337;SDS011;43173;50.980;18.204;2023-03-01T05:40:39;110.10;;;43.70;;
57337;SDS011;43173;50.980;18.204;2023-03-01T05:43:06;115.60;;;44.40;;
57337;SDS011;43173;50.980;18.204;2023-03-01T05:45:31;111.90;;;43.80;;
57337;SDS011;43173;50.980;18.204;2023-03-01T05:47:58;113.20;;;44.20;;
57337;SDS011;43173;50.980;18.204;2023-03-01T05:50:27;113.40;;;44.30;;
57337;SDS011;43173;50.980;18.204;2023-03-01T05:55:36;118.20;;;46.50;;
57337;SDS011;43173;50.980;18.204;2023-03-01T05:58:03;108.90;;;45.30;;
57337;SDS011;43173;50.980;18.204;2023-03-01T06:00:30;118.60;;;47.70;;
57337;SDS011;43173;50.980;18.204;2023-03-01T06:02:56;117.60;;;47.00;;
57337;SDS011;43173;50.980;18.204;2023-03-01T06:05:23;104.70;;;44.50;;
57337;SDS011;43173;50.980;18.204;2023-03-01T06:07:49;108.40;;;43.90;;
57337;SDS011;43173;50.980;18.204;2023-03-01T06:10:16;103.90;;;43.60;;
57337;SDS011;43173;50.980;18.204;2023-03-01T06:12:43;105.80;;;43.20;;
57337;SDS011;43173;50.980;18.204;2023-03-01T06:15:10;116.50;;;48.10;;
57337;SDS011;43173;50.980;18.204;2023-03-01T06:17:38;115.40;;;45.10;;
57337;SDS011;43173;50.980;18.204;2023-03-01T06:20:07;115.10;;;47.20;;
57337;SDS011;43173;50.980;18.204;2023-03-01T06:22:35;130.60;;;47.10;;
57337;SDS011;43173;50.980;18.204;2023-03-01T06:25:01;127.70;;;47.20;;
57337;SDS011;43173;50.980;18.204;2023-03-01T06:27:27;148.00;;;55.60;;
57337;SDS011;43173;50.980;18.204;2023-03-01T06:29:53;182.60;;;64.50;;
57337;SDS011;43173;50.980;18.204;2023-03-01T06:32:19;179.70;;;61.40;;
57337;SDS011;43173;50.980;18.204;2023-03-01T06:34:45;181.20;;;63.30;;
57337;SDS011;43173;50.980;18.204;2023-03-01T06:37:10;184.30;;;64.00;;
57337;SDS011;43173;50.980;18.204;2023-03-01T06:39:36;203.30;;;66.30;;
57337;SDS011;43173;50.980;18.204;2023-03-01T06:42:02;212.00;;;71.80;;
57337;SDS011;43173;50.980;18.204;2023-03-01T06:44:28;201.00;;;68.40;;
57337;SDS011;43173;50.980;18.204;2023-03-01T06:46:54;202.50;;;71.90;;
57337;SDS011;43173;50.980;18.204;2023-03-01T06:49:19;201.50;;;71.50;;
57337;SDS011;43173;50.980;18.204;2023-03-01T06:51:46;200.50;;;74.50;;
57337;SDS011;43173;50.980;18.204;2023-03-01T06:54:11;210.60;;;76.60;;
57337;SDS011;43173;50.980;18.204;2023-03-01T06:56:37;195.90;;;70.80;;
57337;SDS011;43173;50.980;18.204;2023-03-01T06:59:03;213.70;;;77.90;;
57337;SDS011;43173;50.980;18.204;2023-03-01T07:01:29;208.50;;;73.80;;
57337;SDS011;43173;50.980;18.204;2023-03-01T07:03:55;209.60;;;79.00;;
57337;SDS011;43173;50.980;18.204;2023-03-01T07:06:21;221.30;;;77.20;;
57337;SDS011;43173;50.980;18.204;2023-03-01T07:08:47;180.00;;;66.80;;
57337;SDS011;43173;50.980;18.204;2023-03-01T07:11:13;164.60;;;61.80;;
57337;SDS011;43173;50.980;18.204;2023-03-01T07:13:39;148.90;;;55.20;;
57337;SDS011;43173;50.980;18.204;2023-03-01T07:16:05;136.10;;;51.50;;
57337;SDS011;43173;50.980;18.204;2023-03-01T07:18:31;132.30;;;56.30;;
57337;SDS011;43173;50.980;18.204;2023-03-01T07:20:56;157.40;;;58.20;;
57337;SDS011;43173;50.980;18.204;2023-03-01T07:23:22;163.90;;;58.50;;
57337;SDS011;43173;50.980;18.204;2023-03-01T07:25:54;176.00;;;61.30;;
57337;SDS011;43173;50.980;18.204;2023-03-01T07:30:45;181.60;;;59.50;;
57337;SDS011;43173;50.980;18.204;2023-03-01T07:33:11;185.30;;;65.00;;
57337;SDS011;43173;50.980;18.204;2023-03-01T07:35:37;180.20;;;62.00;;
57337;SDS011;43173;50.980;18.204;2023-03-01T07:38:02;191.30;;;64.10;;
57337;SDS011;43173;50.980;18.204;2023-03-01T07:40:28;206.80;;;67.90;;
57337;SDS011;43173;50.980;18.204;2023-03-01T07:42:57;207.20;;;71.40;;
57337;SDS011;43173;50.980;18.204;2023-03-01T07:45:23;193.80;;;65.50;;
57337;SDS011;43173;50.980;18.204;2023-03-01T07:47:52;178.60;;;60.00;;
57337;SDS011;43173;50.980;18.204;2023-03-01T07:50:19;171.70;;;58.60;;
57337;SDS011;43173;50.980;18.204;2023-03-01T07:52:45;138.80;;;52.30;;
57337;SDS011;43173;50.980;18.204;2023-03-01T07:55:12;133.30;;;49.30;;
57337;SDS011;43173;50.980;18.204;2023-03-01T07:57:38;116.10;;;44.20;;
57337;SDS011;43173;50.980;18.204;2023-03-01T08:00:04;129.30;;;48.00;;
57337;SDS011;43173;50.980;18.204;2023-03-01T08:02:31;125.30;;;48.00;;
57337;SDS011;43173;50.980;18.204;2023-03-01T08:04:57;132.10;;;48.20;;
57337;SDS011;43173;50.980;18.204;2023-03-01T08:07:22;114.60;;;45.40;;
57337;SDS011;43173;50.980;18.204;2023-03-01T08:09:48;106.10;;;40.80;;
57337;SDS011;43173;50.980;18.204;2023-03-01T08:12:14;86.10;;;36.60;;
57337;SDS011;43173;50.980;18.204;2023-03-01T08:14:42;74.00;;;32.20;;
57337;SDS011;43173;50.980;18.204;2023-03-01T08:17:08;90.80;;;35.70;;
57337;SDS011;43173;50.980;18.204;2023-03-01T08:19:34;118.50;;;44.00;;
57337;SDS011;43173;50.980;18.204;2023-03-01T08:22:01;121.60;;;47.70;;
57337;SDS011;43173;50.980;18.204;2023-03-01T08:24:27;142.70;;;50.70;;
57337;SDS011;43173;50.980;18.204;2023-03-01T08:26:53;115.20;;;45.40;;
57337;SDS011;43173;50.980;18.204;2023-03-01T08:29:19;124.70;;;47.60;;
57337;SDS011;43173;50.980;18.204;2023-03-01T08:31:46;111.90;;;44.20;;
57337;SDS011;43173;50.980;18.204;2023-03-01T08:34:13;102.90;;;42.30;;
57337;SDS011;43173;50.980;18.204;2023-03-01T08:36:41;96.10;;;37.90;;
57337;SDS011;43173;50.980;18.204;2023-03-01T08:39:09;101.40;;;40.90;;
57337;SDS011;43173;50.980;18.204;2023-03-01T08:41:37;117.50;;;45.30;;
57337;SDS011;43173;50.980;18.204;2023-03-01T08:44:03;105.90;;;45.40;;
57337;SDS011;43173;50.980;18.204;2023-03-01T08:46:33;105.60;;;44.90;;
57337;SDS011;43173;50.980;18.204;2023-03-01T08:49:04;101.90;;;42.70;;
57337;SDS011;43173;50.980;18.204;2023-03-01T08:51:31;79.50;;;35.70;;
57337;SDS011;43173;50.980;18.204;2023-03-01T08:54:05;73.90;;;36.20;;
57337;SDS011;43173;50.980;18.204;2023-03-01T08:56:33;77.20;;;32.20;;
57337;SDS011;43173;50.980;18.204;2023-03-01T08:58:59;85.20;;;39.30;;
57337;SDS011;43173;50.980;18.204;2023-03-01T09:01:25;74.00;;;33.70;;
57337;SDS011;43173;50.980;18.204;2023-03-01T09:03:51;70.00;;;32.60;;
57337;SDS011;43173;50.980;18.204;2023-03-01T09:06:17;66.10;;;28.20;;
57337;SDS011;43173;50.980;18.204;2023-03-01T09:08:43;56.90;;;26.40;;
57337;SDS011;43173;50.980;18.204;2023-03-01T09:11:11;61.50;;;28.10;;
57337;SDS011;43173;50.980;18.204;2023-03-01T09:13:39;66.50;;;28.00;;
57337;SDS011;43173;50.980;18.204;2023-03-01T09:16:06;79.50;;;34.90;;
57337;SDS011;43173;50.980;18.204;2023-03-01T09:18:32;82.60;;;37.80;;
57337;SDS011;43173;50.980;18.204;2023-03-01T09:21:03;88.40;;;38.00;;
57337;SDS011;43173;50.980;18.204;2023-03-01T09:23:36;75.00;;;35.00;;
57337;SDS011;43173;50.980;18.204;2023-03-01T09:26:04;73.50;;;35.10;;
57337;SDS011;43173;50.980;18.204;2023-03-01T09:28:31;77.20;;;36.30;;
57337;SDS011;43173;50.980;18.204;2023-03-01T09:30:57;68.00;;;32.50;;
57337;SDS011;43173;50.980;18.204;2023-03-01T09:33:24;67.20;;;33.10;;
57337;SDS011;43173;50.980;18.204;2023-03-01T09:35:55;60.00;;;31.20;;
57337;SDS011;43173;50.980;18.204;2023-03-01T09:38:24;60.50;;;26.50;;
57337;SDS011;43173;50.980;18.204;2023-03-01T09:40:51;53.00;;;26.40;;
57337;SDS011;43173;50.980;18.204;2023-03-01T09:43:22;54.90;;;25.50;;
57337;SDS011;43173;50.980;18.204;2023-03-01T09:45:52;48.60;;;23.70;;
57337;SDS011;43173;50.980;18.204;2023-03-01T09:48:20;48.80;;;23.70;;
57337;SDS011;43173;50.980;18.204;2023-03-01T09:50:48;50.00;;;22.60;;
57337;SDS011;43173;50.980;18.204;2023-03-01T10:06:31;37.90;;;19.10;;
57337;SDS011;43173;50.980;18.204;2023-03-01T10:09:15;41.40;;;20.80;;
57337;SDS011;43173;50.980;18.204;2023-03-01T10:11:43;37.20;;;20.00;;
57337;SDS011;43173;50.980;18.204;2023-03-01T10:16:48;42.20;;;22.00;;
57337;SDS011;43173;50.980;18.204;2023-03-01T10:19:23;47.00;;;23.80;;
57337;SDS011;43173;50.980;18.204;2023-03-01T10:21:51;46.00;;;24.30;;
57337;SDS011;43173;50.980;18.204;2023-03-01T10:24:18;48.20;;;24.20;;
57337;SDS011;43173;50.980;18.204;2023-03-01T10:29:56;43.10;;;21.90;;
57337;SDS011;43173;50.980;18.204;2023-03-01T10:32:28;42.30;;;21.30;;
57337;SDS011;43173;50.980;18.204;2023-03-01T10:34:54;33.40;;;19.40;;
57337;SDS011;43173;50.980;18.204;2023-03-01T10:37:20;37.50;;;18.80;;
57337;SDS011;43173;50.980;18.204;2023-03-01T10:42:55;40.40;;;19.80;;
57337;SDS011;43173;50.980;18.204;2023-03-01T10:48:08;37.60;;;19.60;;
57337;SDS011;43173;50.980;18.204;2023-03-01T10:50:38;34.70;;;18.90;;
57337;SDS011;43173;50.980;18.204;2023-03-01T10:53:16;30.10;;;17.00;;
57337;SDS011;43173;50.980;18.204;2023-03-01T10:55:47;32.40;;;17.90;;
57337;SDS011;43173;50.980;18.204;2023-03-01T10:58:22;40.40;;;20.10;;
57337;SDS011;43173;50.980;18.204;2023-03-01T11:00:49;33.60;;;18.10;;
57337;SDS011;43173;50.980;18.204;2023-03-01T11:16:28;32.60;;;15.70;;
57337;SDS011;43173;50.980;18.204;2023-03-01T11:24:46;31.00;;;17.30;;
57337;SDS011;43173;50.980;18.204;2023-03-01T11:27:18;33.20;;;17.70;;
57337;SDS011;43173;50.980;18.204;2023-03-01T11:29:46;30.70;;;16.50;;
57337;SDS011;43173;50.980;18.204;2023-03-01T11:32:16;28.80;;;17.20;;
57337;SDS011;43173;50.980;18.204;2023-03-01T11:40:05;37.30;;;17.80;;
57337;SDS011;43173;50.980;18.204;2023-03-01T11:43:04;29.80;;;17.20;;
57337;SDS011;43173;50.980;18.204;2023-03-01T11:45:47;28.70;;;16.20;;
57337;SDS011;43173;50.980;18.204;2023-03-01T11:56:46;28.50;;;16.00;;
57337;SDS011;43173;50.980;18.204;2023-03-01T12:02:27;25.80;;;15.50;;
57337;SDS011;43173;50.980;18.204;2023-03-01T12:21:18;25.60;;;17.80;;
57337;SDS011;43173;50.980;18.204;2023-03-01T12:23:57;26.90;;;18.10;;
57337;SDS011;43173;50.980;18.204;2023-03-01T12:26:46;26.50;;;18.10;;
57337;SDS011;43173;50.980;18.204;2023-03-01T12:29:22;27.70;;;17.00;;
57337;SDS011;43173;50.980;18.204;2023-03-01T12:48:17;30.30;;;19.20;;
57337;SDS011;43173;50.980;18.204;2023-03-01T12:53:17;28.40;;;19.40;;
57337;SDS011;43173;50.980;18.204;2023-03-01T12:55:59;26.70;;;18.20;;
57337;SDS011;43173;50.980;18.204;2023-03-01T13:06:44;25.50;;;16.50;;
57337;SDS011;43173;50.980;18.204;2023-03-01T13:11:53;22.40;;;15.70;;
57337;SDS011;43173;50.980;18.204;2023-03-01T13:16:53;24.60;;;17.20;;
57337;SDS011;43173;50.980;18.204;2023-03-01T13:21:46;27.70;;;19.00;;
57337;SDS011;43173;50.980;18.204;2023-03-01T13:37:31;23.90;;;17.30;;
57337;SDS011;43173;50.980;18.204;2023-03-01T13:39:59;26.10;;;18.20;;
57337;SDS011;43173;50.980;18.204;2023-03-01T13:45:02;23.70;;;16.90;;
57337;SDS011;43173;50.980;18.204;2023-03-01T13:47:29;22.60;;;16.10;;
57337;SDS011;43173;50.980;18.204;2023-03-01T13:49:58;22.10;;;16.10;;
57337;SDS011;43173;50.980;18.204;2023-03-01T13:52:34;23.60;;;15.50;;
57337;SDS011;43173;50.980;18.204;2023-03-01T13:55:51;21.10;;;14.30;;
57337;SDS011;43173;50.980;18.204;2023-03-01T13:58:01;19.90;;;14.20;;
57337;SDS011;43173;50.980;18.204;2023-03-01T14:00:37;18.80;;;13.90;;
57337;SDS011;43173;50.980;18.204;2023-03-01T14:06:06;20.50;;;13.80;;
57337;SDS011;43173;50.980;18.204;2023-03-01T14:08:34;33.30;;;24.40;;
57337;SDS011;43173;50.980;18.204;2023-03-01T14:24:46;25.60;;;17.50;;
57337;SDS011;43173;50.980;18.204;2023-03-01T14:27:17;24.80;;;17.60;;
57337;SDS011;43173;50.980;18.204;2023-03-01T14:29:44;25.80;;;17.80;;
57337;SDS011;43173;50.980;18.204;2023-03-01T14:32:12;21.50;;;15.10;;
57337;SDS011;43173;50.980;18.204;2023-03-01T14:34:45;22.70;;;16.20;;
57337;SDS011;43173;50.980;18.204;2023-03-01T14:37:20;24.10;;;16.70;;
57337;SDS011;43173;50.980;18.204;2023-03-01T14:39:47;25.10;;;17.00;;
57337;SDS011;43173;50.980;18.204;2023-03-01T14:42:14;27.30;;;19.00;;
57337;SDS011;43173;50.980;18.204;2023-03-01T14:44:42;25.90;;;18.60;;
57337;SDS011;43173;50.980;18.204;2023-03-01T14:47:16;24.50;;;17.80;;
57337;SDS011;43173;50.980;18.204;2023-03-01T14:52:45;27.20;;;18.50;;
57337;SDS011;43173;50.980;18.204;2023-03-01T14:55:15;28.90;;;18.50;;
57337;SDS011;43173;50.980;18.204;2023-03-01T14:57:44;30.70;;;21.00;;
57337;SDS011;43173;50.980;18.204;2023-03-01T15:00:20;29.10;;;19.50;;
57337;SDS011;43173;50.980;18.204;2023-03-01T15:02:48;28.30;;;19.50;;
57337;SDS011;43173;50.980;18.204;2023-03-01T15:05:15;39.80;;;24.10;;
57337;SDS011;43173;50.980;18.204;2023-03-01T15:07:45;32.60;;;20.30;;
57337;SDS011;43173;50.980;18.204;2023-03-01T15:10:33;38.00;;;23.50;;
57337;SDS011;43173;50.980;18.204;2023-03-01T15:15:49;23.40;;;16.20;;
57337;SDS011;43173;50.980;18.204;2023-03-01T15:18:25;26.50;;;16.80;;
57337;SDS011;43173;50.980;18.204;2023-03-01T15:20:52;23.90;;;15.80;;
57337;SDS011;43173;50.980;18.204;2023-03-01T15:23:25;28.80;;;18.50;;
57337;SDS011;43173;50.980;18.204;2023-03-01T15:25:52;55.40;;;28.90;;
57337;SDS011;43173;50.980;18.204;2023-03-01T15:28:23;45.10;;;24.20;;
57337;SDS011;43173;50.980;18.204;2023-03-01T15:30:52;33.80;;;21.40;;
57337;SDS011;43173;50.980;18.204;2023-03-01T15:35:54;29.20;;;18.70;;
57337;SDS011;43173;50.980;18.204;2023-03-01T15:40:55;38.60;;;21.90;;
57337;SDS011;43173;50.980;18.204;2023-03-01T15:46:32;44.60;;;24.00;;
57337;SDS011;43173;50.980;18.204;2023-03-01T15:49:02;41.80;;;22.60;;
57337;SDS011;43173;50.980;18.204;2023-03-01T15:53:58;51.70;;;24.90;;
57337;SDS011;43173;50.980;18.204;2023-03-01T15:56:26;63.80;;;28.50;;
57337;SDS011;43173;50.980;18.204;2023-03-01T15:58:51;67.80;;;30.00;;
57337;SDS011;43173;50.980;18.204;2023-03-01T16:01:17;72.60;;;34.90;;
57337;SDS011;43173;50.980;18.204;2023-03-01T16:03:43;68.50;;;33.50;;
57337;SDS011;43173;50.980;18.204;2023-03-01T16:06:10;71.30;;;31.30;;
57337;SDS011;43173;50.980;18.204;2023-03-01T16:08:36;77.60;;;36.90;;
57337;SDS011;43173;50.980;18.204;2023-03-01T16:11:04;85.60;;;42.10;;
57337;SDS011;43173;50.980;18.204;2023-03-01T16:13:31;71.30;;;38.20;;
57337;SDS011;43173;50.980;18.204;2023-03-01T16:15:58;86.90;;;43.70;;
57337;SDS011;43173;50.980;18.204;2023-03-01T16:18:24;152.70;;;66.20;;
57337;SDS011;43173;50.980;18.204;2023-03-01T16:20:50;195.40;;;80.70;;
57337;SDS011;43173;50.980;18.204;2023-03-01T16:23:16;250.90;;;98.20;;
57337;SDS011;43173;50.980;18.204;2023-03-01T16:25:42;245.40;;;95.30;;
57337;SDS011;43173;50.980;18.204;2023-03-01T16:28:07;212.60;;;82.80;;
57337;SDS011;43173;50.980;18.204;2023-03-01T16:30:39;259.50;;;92.30;;
57337;SDS011;43173;50.980;18.204;2023-03-01T16:33:05;241.10;;;84.60;;
57337;SDS011;43173;50.980;18.204;2023-03-01T16:38:04;144.20;;;57.40;;
57337;SDS011;43173;50.980;18.204;2023-03-01T16:40:30;119.60;;;50.10;;
57337;SDS011;43173;50.980;18.204;2023-03-01T16:42:56;87.70;;;41.10;;
57337;SDS011;43173;50.980;18.204;2023-03-01T16:45:25;88.70;;;35.80;;
57337;SDS011;43173;50.980;18.204;2023-03-01T16:47:52;94.60;;;40.20;;
57337;SDS011;43173;50.980;18.204;2023-03-01T16:50:18;89.80;;;41.30;;
57337;SDS011;43173;50.980;18.204;2023-03-01T16:52:44;93.60;;;39.50;;
57337;SDS011;43173;50.980;18.204;2023-03-01T16:55:10;86.30;;;34.40;;
57337;SDS011;43173;50.980;18.204;2023-03-01T16:57:36;87.80;;;34.80;;
57337;SDS011;43173;50.980;18.204;2023-03-01T17:00:06;156.90;;;46.80;;
57337;SDS011;43173;50.980;18.204;2023-03-01T17:02:48;101.60;;;33.40;;
57337;SDS011;43173;50.980;18.204;2023-03-01T17:05:14;95.90;;;32.30;;
57337;SDS011;43173;50.980;18.204;2023-03-01T17:07:40;61.80;;;26.20;;
57337;SDS011;43173;50.980;18.204;2023-03-01T17:10:07;96.70;;;33.60;;
57337;SDS011;43173;50.980;18.204;2023-03-01T17:12:34;140.00;;;43.10;;
57337;SDS011;43173;50.980;18.204;2023-03-01T17:15:01;127.80;;;39.00;;